createdAt,value
2023-01-12T00:00:31.404Z,101565.22
2023-01-12T00:02:59.201Z,101616.59
2023-01-12T00:05:27.179Z,101598.75
2023-01-12T00:07:54.995Z,101593.84
2023-01-12T00:10:22.729Z,101529.06
2023-01-12T00:12:50.556Z,101578.44
2023-01-12T00:15:38.217Z,101552.94
2023-01-12T00:18:06.091Z,101599.31
2023-01-12T00:20:33.918Z,101616.63
2023-01-12T00:23:01.894Z,101613.84
2023-01-12T00:25:29.564Z,101620.22
2023-01-12T00:27:57.279Z,101577.69
2023-01-12T00:30:24.986Z,101579.81
2023-01-12T00:32:52.666Z,101631.72
2023-01-12T00:35:20.554Z,101529.50
2023-01-12T00:37:48.483Z,101595.75
2023-01-12T00:40:16.864Z,101569.19
2023-01-12T00:43:03.743Z,101576.88
2023-01-12T00:45:31.413Z,101613.16
2023-01-12T00:47:59.352Z,101595.94
2023-01-12T00:50:27.596Z,101605.72
2023-01-12T00:52:55.296Z,101525.97
2023-01-12T00:55:22.980Z,101619.75
2023-01-12T00:57:50.879Z,101611.28
2023-01-12T01:00:19.034Z,101579.53
2023-01-12T01:02:47.107Z,101611.84
2023-01-12T01:05:14.986Z,101614.56
2023-01-12T01:07:42.717Z,101620.81
2023-01-12T01:10:11.749Z,101601.69
2023-01-12T01:12:40.395Z,101619.56
2023-01-12T01:15:09.174Z,101611.34
2023-01-12T01:17:37.042Z,101596.94
2023-01-12T01:20:05.344Z,101599.59
2023-01-12T01:22:33.141Z,101615.75
2023-01-12T01:25:00.894Z,101616.84
2023-01-12T01:27:28.715Z,101595.75
2023-01-12T01:29:56.378Z,101604.16
2023-01-12T01:32:24.447Z,101607.44
2023-01-12T01:34:52.509Z,101585.28
2023-01-12T01:37:22.171Z,101597.84
2023-01-12T01:39:50.068Z,101569.81
2023-01-12T01:42:30.583Z,101600.69
2023-01-12T01:45:01.485Z,101615.13
2023-01-12T01:47:36.712Z,101570.47
2023-01-12T01:50:10.902Z,101644.00
2023-01-12T01:52:44.971Z,101637.25
2023-01-12T01:55:48.422Z,101601.94
2023-01-12T01:58:38.833Z,101573.47
2023-01-12T02:01:07.524Z,101617.66
2023-01-12T02:03:37.790Z,101653.78
2023-01-12T02:06:07.899Z,101648.53
2023-01-12T02:08:44.912Z,101632.41
2023-01-12T02:11:32.138Z,101664.09
2023-01-12T02:14:18.331Z,101650.13
2023-01-12T02:16:57.253Z,101662.63
2023-01-12T02:20:00.329Z,101657.91
2023-01-12T02:22:49.440Z,101666.22
2023-01-12T02:25:42.804Z,101636.50
2023-01-12T02:28:38.345Z,101671.31
2023-01-12T02:31:32.735Z,101666.47
2023-01-12T02:34:26.879Z,101650.84
2023-01-12T02:37:25.466Z,101667.59
2023-01-12T02:39:59.114Z,101672.53
2023-01-12T02:42:42.861Z,101675.84
2023-01-12T02:46:02.131Z,101669.31
2023-01-12T02:48:52.054Z,101657.75
2023-01-12T02:51:25.716Z,101659.53
2023-01-12T02:54:01.377Z,101647.16
2023-01-12T02:56:47.846Z,101616.25
2023-01-12T02:59:28.224Z,101645.81
2023-01-12T03:02:09.273Z,101628.66
2023-01-12T03:04:37.374Z,101642.09
2023-01-12T03:07:05.034Z,101633.97
2023-01-12T03:09:47.973Z,101626.06
2023-01-12T03:12:22.516Z,101521.25
2023-01-12T03:14:53.656Z,101626.31
2023-01-12T03:17:31.279Z,101597.00
2023-01-12T03:20:15.459Z,101604.66
2023-01-12T03:22:45.697Z,101583.00
2023-01-12T03:25:17.929Z,101582.84
2023-01-12T03:27:50.665Z,101635.91
2023-01-12T03:30:25.187Z,101568.22
2023-01-12T03:32:53.206Z,101619.66
2023-01-12T03:35:27.460Z,101645.94
2023-01-12T03:38:05.230Z,101580.13
2023-01-12T03:40:39.562Z,101629.69
2023-01-12T03:43:27.166Z,101549.75
2023-01-12T03:46:07.051Z,101597.81
2023-01-12T03:48:43.153Z,101605.69
2023-01-12T03:51:25.655Z,101613.16
2023-01-12T03:53:56.498Z,101572.75
2023-01-12T03:56:28.333Z,101657.72
2023-01-12T03:58:56.330Z,101657.13
2023-01-12T04:01:24.157Z,101550.09
2023-01-12T04:03:52.225Z,101651.06
2023-01-12T04:06:20.021Z,101618.84
2023-01-12T04:08:47.717Z,101661.31
2023-01-12T04:11:34.169Z,101658.84
2023-01-12T04:14:01.969Z,101579.31
2023-01-12T04:16:29.778Z,101615.47
2023-01-12T04:18:57.687Z,101648.91
2023-01-12T04:21:45.672Z,101618.59
2023-01-12T04:24:13.499Z,101563.59
2023-01-12T04:26:41.385Z,101567.06
2023-01-12T04:29:09.169Z,101595.38
2023-01-12T04:31:37.163Z,101648.47
2023-01-12T04:34:05.075Z,101656.09
2023-01-12T04:36:32.866Z,101623.50
2023-01-12T04:39:01.805Z,101650.84
2023-01-12T04:41:29.605Z,101655.81
2023-01-12T04:43:57.355Z,101647.31
2023-01-12T04:46:25.329Z,101655.28
2023-01-12T04:48:53.151Z,101661.72
2023-01-12T04:51:20.943Z,101652.34
2023-01-12T04:53:49.426Z,101581.28
2023-01-12T04:56:18.435Z,101622.94
2023-01-12T04:58:46.375Z,101640.63
2023-01-12T05:01:19.942Z,101628.38
2023-01-12T05:03:48.106Z,101561.53
2023-01-12T05:06:15.875Z,101567.81
2023-01-12T05:09:03.037Z,101621.81
2023-01-12T05:11:30.818Z,101642.16
2023-01-12T05:13:58.817Z,101563.81
2023-01-12T05:16:27.574Z,101650.03
2023-01-12T05:18:55.537Z,101648.09
2023-01-12T05:21:24.685Z,101629.78
2023-01-12T05:23:52.996Z,101611.69
2023-01-12T05:26:21.219Z,101634.88
2023-01-12T05:28:50.388Z,101623.78
2023-01-12T05:31:19.740Z,101653.13
2023-01-12T05:33:48.448Z,101655.25
2023-01-12T05:36:17.440Z,101647.69
2023-01-12T05:38:45.355Z,101559.78
2023-01-12T05:41:14.684Z,101627.50
2023-01-12T05:43:52.704Z,101618.84
2023-01-12T05:46:26.317Z,101659.13
2023-01-12T05:48:56.059Z,101662.66
2023-01-12T05:51:26.374Z,101574.00
2023-01-12T05:53:55.447Z,101665.91
2023-01-12T05:56:28.511Z,101699.25
2023-01-12T05:58:58.924Z,101713.69
2023-01-12T06:01:28.422Z,101616.38
2023-01-12T06:03:59.451Z,101698.09
2023-01-12T06:06:31.546Z,101721.69
2023-01-12T06:09:01.159Z,101698.09
2023-01-12T06:11:48.205Z,101709.03
2023-01-12T06:14:18.477Z,101702.19
2023-01-12T06:16:46.471Z,101710.84
2023-01-12T06:19:14.292Z,101627.88
2023-01-12T06:21:42.124Z,101680.75
2023-01-12T06:24:09.970Z,101672.09
2023-01-12T06:26:37.827Z,101718.16
2023-01-12T06:29:07.306Z,101718.72
2023-01-12T06:31:35.187Z,101715.84
2023-01-12T06:34:03.139Z,101705.50
2023-01-12T06:36:31.045Z,101706.47
2023-01-12T06:38:59.203Z,101696.13
2023-01-12T06:41:45.520Z,101687.47
2023-01-12T06:44:13.637Z,101709.00
2023-01-12T06:46:41.648Z,101703.59
2023-01-12T06:49:09.485Z,101645.25
2023-01-12T06:51:37.349Z,101675.56
2023-01-12T06:54:05.447Z,101720.25
2023-01-12T06:56:33.364Z,101713.69
2023-01-12T06:59:01.364Z,101711.22
2023-01-12T07:01:29.230Z,101703.44
2023-01-12T07:03:57.212Z,101705.91
2023-01-12T07:06:25.067Z,101600.13
2023-01-12T07:08:52.888Z,101618.25
2023-01-12T07:11:20.523Z,101723.72
2023-01-12T07:13:48.644Z,101664.81
2023-01-12T07:16:16.584Z,101710.91
2023-01-12T07:18:44.647Z,101743.09
2023-01-12T07:21:13.844Z,101669.22
2023-01-12T07:23:44.353Z,101746.16
2023-01-12T07:26:13.059Z,101745.34
2023-01-12T07:28:41.313Z,101757.34
2023-01-12T07:31:09.817Z,101671.13
2023-01-12T07:33:38.669Z,101744.91
2023-01-12T07:36:06.774Z,101716.72
2023-01-12T07:38:35.113Z,101741.84
2023-01-12T07:41:03.495Z,101739.69
2023-01-12T07:43:33.840Z,101715.78
2023-01-12T07:46:01.872Z,101746.69
2023-01-12T07:48:30.935Z,101702.50
2023-01-12T07:50:59.562Z,101740.00
2023-01-12T07:53:27.402Z,101739.41
2023-01-12T07:55:55.279Z,101738.19
2023-01-12T07:58:23.278Z,101655.50
2023-01-12T08:00:51.108Z,101744.69
2023-01-12T08:03:18.799Z,101742.97
2023-01-12T08:05:46.619Z,101743.47
2023-01-12T08:08:14.343Z,101739.44
2023-01-12T08:10:44.033Z,101736.16
2023-01-12T08:13:13.202Z,101669.56
2023-01-12T08:15:46.378Z,101738.34
2023-01-12T08:18:24.085Z,101747.00
2023-01-12T08:20:54.102Z,101723.72
2023-01-12T08:23:35.829Z,101694.41
2023-01-12T08:26:10.569Z,101741.31
2023-01-12T08:28:45.815Z,101724.25
2023-01-12T08:33:54.623Z,101681.31
2023-01-12T08:36:23.537Z,101759.19
2023-01-12T08:38:52.057Z,101688.88
2023-01-12T08:41:36.791Z,101667.03
2023-01-12T08:44:09.972Z,101755.03
2023-01-12T08:46:40.349Z,101737.50
2023-01-12T08:49:11.565Z,101737.84
2023-01-12T08:51:46.069Z,101740.94
2023-01-12T08:54:16.540Z,101689.31
2023-01-12T08:56:45.268Z,101729.09
2023-01-12T08:59:13.785Z,101718.66
2023-01-12T09:01:42.173Z,101729.31
2023-01-12T09:04:09.978Z,101717.13
2023-01-12T09:06:41.390Z,101718.94
2023-01-12T09:09:15.638Z,101722.03
2023-01-12T09:11:45.220Z,101759.72
2023-01-12T09:14:14.551Z,101754.03
2023-01-12T09:16:42.701Z,101730.78
2023-01-12T09:19:10.705Z,101757.06
2023-01-12T09:21:41.229Z,101763.50
2023-01-12T09:24:10.756Z,101750.00
2023-01-12T09:26:43.899Z,101730.63
2023-01-12T09:29:13.544Z,101773.94
2023-01-12T09:31:43.770Z,101729.63
2023-01-12T09:34:12.607Z,101742.84
2023-01-12T09:36:41.291Z,101767.31
2023-01-12T09:39:15.421Z,101665.03
2023-01-12T09:42:07.996Z,101730.41
2023-01-12T09:45:00.968Z,101734.84
2023-01-12T09:47:40.433Z,101769.38
2023-01-12T09:50:16.583Z,101773.75
2023-01-12T09:52:57.967Z,101736.97
2023-01-12T09:55:29.894Z,101746.63
2023-01-12T09:58:10.524Z,101788.25
2023-01-12T10:00:38.944Z,101796.97
2023-01-12T10:03:27.300Z,101792.88
2023-01-12T10:06:02.800Z,101741.53
2023-01-12T10:08:30.790Z,101792.75
2023-01-12T10:11:35.665Z,101791.94
2023-01-12T10:14:34.969Z,101781.38
2023-01-12T10:17:25.733Z,101777.03
2023-01-12T10:20:05.368Z,101767.41
2023-01-12T10:22:40.103Z,101722.19
2023-01-12T10:25:24.217Z,101757.84
2023-01-12T10:27:57.819Z,101757.34
2023-01-12T10:30:34.577Z,101768.03
2023-01-12T10:33:30.504Z,101742.13
2023-01-12T10:36:32.034Z,101736.19
2023-01-12T10:39:05.228Z,101683.97
2023-01-12T10:41:34.961Z,101736.38
2023-01-12T10:44:16.849Z,101702.00
2023-01-12T10:47:08.671Z,101710.53
2023-01-12T10:49:38.561Z,101710.53
2023-01-12T10:52:19.823Z,101653.09
2023-01-12T10:54:49.514Z,101699.59
2023-01-12T10:57:23.487Z,101720.41
2023-01-12T10:59:55.053Z,101696.03
2023-01-12T11:02:25.895Z,101714.91
2023-01-12T11:04:54.802Z,101727.78
2023-01-12T11:07:27.488Z,101731.56
2023-01-12T11:09:58.571Z,101732.66
2023-01-12T11:12:35.338Z,101688.34
2023-01-12T11:15:10.765Z,101731.63
2023-01-12T11:17:39.400Z,101736.50
2023-01-12T11:20:35.172Z,101721.66
2023-01-12T11:23:05.538Z,101737.00
2023-01-12T11:25:53.747Z,101712.69
2023-01-12T11:28:31.248Z,101693.97
2023-01-12T11:31:01.249Z,101700.50
2023-01-12T11:33:40.212Z,101705.22
2023-01-12T11:36:16.980Z,101706.34
2023-01-12T11:38:51.033Z,101678.94
2023-01-12T11:41:27.114Z,101699.03
2023-01-12T11:44:21.091Z,101693.31
2023-01-12T11:46:59.799Z,101689.22
2023-01-12T11:49:42.462Z,101668.50
2023-01-12T11:52:13.691Z,101671.03
2023-01-12T11:54:42.242Z,101671.28
2023-01-12T11:57:24.559Z,101621.19
2023-01-12T12:00:14.002Z,101665.84
2023-01-12T12:02:45.781Z,101594.50
2023-01-12T12:05:22.670Z,101660.97
2023-01-12T12:08:06.087Z,101659.06
2023-01-12T12:10:54.304Z,101602.00
2023-01-12T12:13:28.246Z,101643.13
2023-01-12T12:16:16.034Z,101630.59
2023-01-12T12:18:46.911Z,101627.88
2023-01-12T12:21:36.857Z,101616.19
2023-01-12T12:24:10.654Z,101603.41
2023-01-12T12:26:49.821Z,101568.22
2023-01-12T12:29:54.959Z,101592.53
2023-01-12T12:32:35.399Z,101586.78
2023-01-12T12:35:27.080Z,101581.13
2023-01-12T12:38:13.547Z,101586.56
2023-01-12T12:41:40.735Z,101577.00
2023-01-12T12:44:55.721Z,101568.34
2023-01-12T12:47:49.130Z,101552.53
2023-01-12T12:50:44.333Z,101540.00
2023-01-12T12:53:30.361Z,101535.38
2023-01-12T12:56:01.964Z,101527.22
2023-01-12T12:58:44.813Z,101529.94
2023-01-12T13:01:22.580Z,101525.63
2023-01-12T13:03:51.792Z,101520.22
2023-01-12T13:06:49.643Z,101524.88
2023-01-12T13:09:17.734Z,101521.91
2023-01-12T13:11:54.540Z,101524.63
2023-01-12T13:14:40.190Z,101538.25
2023-01-12T13:17:20.439Z,101520.84
2023-01-12T13:20:01.461Z,101421.47
2023-01-12T13:22:46.113Z,101512.47
2023-01-12T13:25:20.662Z,101513.00
2023-01-12T13:28:01.292Z,101508.94
2023-01-12T13:30:29.107Z,101508.66
2023-01-12T13:33:15.621Z,101499.41
2023-01-12T13:35:46.586Z,101503.72
2023-01-12T13:38:44.017Z,101508.88
2023-01-12T13:41:34.815Z,101503.72
2023-01-12T13:44:04.196Z,101493.66
2023-01-12T13:46:41.189Z,101497.78
2023-01-12T13:49:33.618Z,101487.72
2023-01-12T13:52:05.096Z,101487.97
2023-01-12T13:54:34.171Z,101494.47
2023-01-12T13:57:10.927Z,101489.03
2023-01-12T13:59:38.814Z,101453.84
2023-01-12T14:02:18.126Z,101485.78
2023-01-12T14:04:59.541Z,101499.97
2023-01-12T14:07:30.339Z,101501.31
2023-01-12T14:10:14.621Z,101500.81
2023-01-12T14:13:01.473Z,101491.53
2023-01-12T14:15:57.947Z,101488.28
2023-01-12T14:18:28.380Z,101446.50
2023-01-12T14:20:58.724Z,101475.22
2023-01-12T14:23:26.599Z,101473.53
2023-01-12T14:26:27.357Z,101432.38
2023-01-12T14:28:55.035Z,101434.84
2023-01-12T14:31:32.958Z,101461.34
2023-01-12T14:34:04.662Z,101454.00
2023-01-12T14:36:37.499Z,101446.66
2023-01-12T14:39:10.148Z,101432.47
2023-01-12T14:41:56.448Z,101444.81
2023-01-12T14:44:44.857Z,101410.66
2023-01-12T14:47:28.378Z,101449.38
2023-01-12T14:49:56.455Z,101405.44
2023-01-12T14:52:33.325Z,101437.97
2023-01-12T14:55:17.970Z,101443.63
2023-01-12T14:57:58.935Z,101446.34
2023-01-12T15:00:33.658Z,101409.56
2023-01-12T15:03:08.135Z,101431.13
2023-01-12T15:05:37.627Z,101414.16
2023-01-12T15:08:08.615Z,101434.06
2023-01-12T15:10:36.356Z,101442.50
2023-01-12T15:13:23.148Z,101449.56
2023-01-12T15:16:11.696Z,101443.00
2023-01-12T15:18:59.135Z,101388.38
2023-01-12T15:21:46.555Z,101454.44
2023-01-12T15:24:46.071Z,101417.88
2023-01-12T15:27:16.718Z,101439.69
2023-01-12T15:29:45.054Z,101448.97
2023-01-12T15:32:51.636Z,101441.63
2023-01-12T15:35:24.730Z,101423.63
2023-01-12T15:37:55.019Z,101393.31
2023-01-12T15:40:24.642Z,101443.53
2023-01-12T15:42:53.507Z,101399.88
2023-01-12T15:45:48.261Z,101408.88
2023-01-12T15:48:16.185Z,101369.00
2023-01-12T15:50:47.867Z,101392.19
2023-01-12T15:53:22.158Z,101419.28
2023-01-12T15:55:50.005Z,101399.06
2023-01-12T15:58:19.732Z,101437.00
2023-01-12T16:00:47.798Z,101390.66
2023-01-12T16:03:34.569Z,101423.91
2023-01-12T16:06:03.550Z,101407.56
2023-01-12T16:08:31.798Z,101390.13
2023-01-12T16:11:14.549Z,101361.22
2023-01-12T16:13:42.243Z,101399.16
2023-01-12T16:16:16.320Z,101404.66
2023-01-12T16:18:44.778Z,101390.22
2023-01-12T16:21:17.855Z,101403.03
2023-01-12T16:23:46.590Z,101331.84
2023-01-12T16:26:14.570Z,101422.38
2023-01-12T16:28:42.842Z,101412.31
2023-01-12T16:31:14.076Z,101370.59
2023-01-12T16:33:43.543Z,101407.16
2023-01-12T16:36:13.603Z,101355.31
2023-01-12T16:38:42.046Z,101377.66
2023-01-12T16:41:15.876Z,101414.50
2023-01-12T16:43:43.730Z,101430.03
2023-01-12T16:46:12.652Z,101430.53
2023-01-12T16:48:42.330Z,101427.81
2023-01-12T16:51:15.601Z,101422.09
2023-01-12T16:53:43.845Z,101356.59
2023-01-12T16:56:13.581Z,101417.22
2023-01-12T16:58:48.915Z,101421.88
2023-01-12T17:01:22.688Z,101385.22
2023-01-12T17:03:51.371Z,101434.34
2023-01-12T17:06:21.395Z,101417.69
2023-01-12T17:08:49.532Z,101447.66
2023-01-12T17:11:21.266Z,101436.47
2023-01-12T17:13:57.190Z,101431.50
2023-01-12T17:16:30.758Z,101411.56
2023-01-12T17:18:58.870Z,101453.38
2023-01-12T17:21:27.590Z,101414.91
2023-01-12T17:23:55.929Z,101448.47
2023-01-12T17:26:24.229Z,101457.97
2023-01-12T17:28:58.618Z,101450.56
2023-01-12T17:31:26.547Z,101460.38
2023-01-12T17:33:54.337Z,101431.94
2023-01-12T17:36:22.280Z,101440.97
2023-01-12T17:38:51.141Z,101455.88
2023-01-12T17:41:37.559Z,101475.00
2023-01-12T17:44:07.218Z,101479.41
2023-01-12T17:46:35.779Z,101476.97
2023-01-12T17:49:06.439Z,101481.03
2023-01-12T17:51:34.896Z,101372.44
2023-01-12T17:54:04.554Z,101475.34
2023-01-12T17:56:33.876Z,101439.34
2023-01-12T17:59:02.228Z,101479.13
2023-01-12T18:01:32.425Z,101437.09
2023-01-12T18:04:01.245Z,101478.09
2023-01-12T18:06:29.317Z,101447.28
2023-01-12T18:08:59.600Z,101455.50
2023-01-12T18:11:31.439Z,101447.34
2023-01-12T18:14:00.871Z,101477.94
2023-01-12T18:16:29.501Z,101433.75
2023-01-12T18:18:59.481Z,101465.94
2023-01-12T18:21:27.880Z,101453.88
2023-01-12T18:23:57.025Z,101391.06
2023-01-12T18:26:28.116Z,101449.72
2023-01-12T18:28:57.393Z,101456.31
2023-01-12T18:31:29.120Z,101480.28
2023-01-12T18:34:18.369Z,101437.00
2023-01-12T18:36:46.514Z,101483.50
2023-01-12T18:39:23.291Z,101482.69
2023-01-12T18:42:09.510Z,101438.53
2023-01-12T18:44:38.766Z,101483.00
2023-01-12T18:47:25.477Z,101481.16
2023-01-12T18:49:57.690Z,101406.97
2023-01-12T18:52:44.557Z,101450.63
2023-01-12T18:55:12.434Z,101401.47
2023-01-12T18:57:40.554Z,101485.50
2023-01-12T19:00:16.206Z,101455.16
2023-01-12T19:02:44.964Z,101487.72
2023-01-12T19:05:23.516Z,101461.25
2023-01-12T19:08:00.234Z,101463.97
2023-01-12T19:10:30.149Z,101458.81
2023-01-12T19:13:17.880Z,101403.97
2023-01-12T19:16:04.534Z,101444.94
2023-01-12T19:18:35.256Z,101440.81
2023-01-12T19:21:26.829Z,101475.50
2023-01-12T19:24:17.209Z,101407.81
2023-01-12T19:27:03.363Z,101468.47
2023-01-12T19:29:40.448Z,101458.91
2023-01-12T19:32:08.547Z,101479.06
2023-01-12T19:34:37.672Z,101441.94
2023-01-12T19:37:06.204Z,101418.81
2023-01-12T19:40:00.513Z,101375.16
2023-01-12T19:42:51.021Z,101416.84
2023-01-12T19:45:20.228Z,101453.16
2023-01-12T19:47:49.099Z,101446.31
2023-01-12T19:50:16.949Z,101453.63
2023-01-12T19:52:46.139Z,101480.66
2023-01-12T19:55:17.732Z,101461.03
2023-01-12T19:57:45.921Z,101397.19
2023-01-12T20:00:17.250Z,101475.22
2023-01-12T20:02:46.255Z,101402.09
2023-01-12T20:05:22.101Z,101429.38
2023-01-12T20:07:55.069Z,101433.78
2023-01-12T20:10:26.683Z,101460.59
2023-01-12T20:12:55.084Z,101413.41
2023-01-12T20:15:22.973Z,101339.19
2023-01-12T20:17:51.348Z,101449.72
2023-01-12T20:20:20.677Z,101453.78
2023-01-12T20:22:50.146Z,101455.41
2023-01-12T20:25:20.552Z,101426.78
2023-01-12T20:27:49.879Z,101448.06
2023-01-12T20:30:36.440Z,101469.59
2023-01-12T20:33:06.527Z,101460.41
2023-01-12T20:35:35.569Z,101459.00
2023-01-12T20:38:08.191Z,101437.75
2023-01-12T20:40:38.341Z,101449.75
2023-01-12T20:43:06.155Z,101427.03
2023-01-12T20:45:34.165Z,101421.03
2023-01-12T20:48:01.876Z,101426.22
2023-01-12T20:50:29.654Z,101432.44
2023-01-12T20:52:57.723Z,101463.75
2023-01-12T20:55:25.927Z,101461.31
2023-01-12T20:57:53.812Z,101447.91
2023-01-12T21:00:22.226Z,101453.69
2023-01-12T21:02:50.198Z,101432.66
2023-01-12T21:05:18.117Z,101441.66
2023-01-12T21:07:48.668Z,101456.69
2023-01-12T21:10:18.414Z,101448.25
2023-01-12T21:12:47.773Z,101461.25
2023-01-12T21:15:18.256Z,101413.31
2023-01-12T21:17:46.173Z,101405.91
2023-01-12T21:20:14.955Z,101443.56
2023-01-12T21:22:43.996Z,101375.88
2023-01-12T21:25:11.972Z,101437.53
2023-01-12T21:27:40.021Z,101438.88
2023-01-12T21:30:08.596Z,101373.06
2023-01-12T21:32:36.301Z,101364.03
2023-01-12T21:35:04.585Z,101419.56
2023-01-12T21:37:32.408Z,101422.22
2023-01-12T21:40:00.199Z,101398.44
2023-01-12T21:42:47.107Z,101417.00
2023-01-12T21:45:14.940Z,101364.31
2023-01-12T21:47:42.707Z,101359.91
2023-01-12T21:50:11.131Z,101389.13
2023-01-12T21:52:41.758Z,101380.13
2023-01-12T21:55:12.571Z,101369.41
2023-01-12T21:57:42.132Z,101430.75
2023-01-12T22:00:10.664Z,101425.81
2023-01-12T22:02:43.152Z,101406.97
2023-01-12T22:05:11.685Z,101420.94
2023-01-12T22:07:42.802Z,101444.34
2023-01-12T22:10:19.873Z,101427.00
2023-01-12T22:12:50.648Z,101390.97
2023-01-12T22:15:18.827Z,101404.38
2023-01-12T22:17:47.567Z,101414.22
2023-01-12T22:20:18.800Z,101417.19
2023-01-12T22:22:47.049Z,101374.09
2023-01-12T22:25:16.224Z,101411.50
2023-01-12T22:27:44.557Z,101392.63
2023-01-12T22:30:15.659Z,101400.81
2023-01-12T22:32:44.189Z,101412.22
2023-01-12T22:35:12.812Z,101404.63
2023-01-12T22:37:41.521Z,101413.41
2023-01-12T22:40:11.300Z,101404.91
2023-01-12T22:42:57.799Z,101419.84
2023-01-12T22:45:25.778Z,101388.75
2023-01-12T22:47:55.012Z,101399.06
2023-01-12T22:50:23.888Z,101298.16
2023-01-12T22:52:54.858Z,101331.94
2023-01-12T22:55:24.491Z,101377.22
2023-01-12T22:57:52.668Z,101403.44
2023-01-12T23:00:21.486Z,101341.56
2023-01-12T23:03:01.731Z,101388.75
2023-01-12T23:05:36.311Z,101397.75
2023-01-12T23:08:06.388Z,101391.50
2023-01-12T23:10:35.165Z,101377.34
2023-01-12T23:13:14.059Z,101379.50
2023-01-12T23:15:55.744Z,101359.13
2023-01-12T23:18:29.348Z,101371.91
2023-01-12T23:21:16.827Z,101368.44
2023-01-12T23:23:52.962Z,101352.63
2023-01-12T23:26:23.405Z,101368.72
2023-01-12T23:28:56.138Z,101335.19
2023-01-12T23:31:26.285Z,101364.84
2023-01-12T23:33:54.248Z,101279.22
2023-01-12T23:36:24.385Z,101350.41
2023-01-12T23:38:56.321Z,101347.69
2023-01-12T23:41:26.872Z,101339.31
2023-01-12T23:43:57.832Z,101346.66
2023-01-12T23:46:26.645Z,101319.41
2023-01-12T23:48:56.291Z,101336.59
2023-01-12T23:51:26.100Z,101326.25
2023-01-12T23:53:59.655Z,101261.91
2023-01-12T23:56:33.056Z,101291.97
2023-01-12T23:59:01.251Z,101320.53
